createdAt,value
2022-12-31T00:01:28.853Z,95129.53
2022-12-31T00:03:56.697Z,95112.53
2022-12-31T00:09:12.915Z,95113.34
2022-12-31T00:11:40.284Z,95104.44
2022-12-31T00:14:07.183Z,95106.31
2022-12-31T00:16:40.363Z,95104.59
2022-12-31T00:19:08.921Z,95111.91
2022-12-31T00:21:36.745Z,95119.50
2022-12-31T00:24:05.583Z,95127.50
2022-12-31T00:26:33.916Z,95115.75
2022-12-31T00:29:02.219Z,95124.53
2022-12-31T00:31:34.671Z,95131.44
2022-12-31T00:34:02.181Z,95133.16
2022-12-31T00:36:38.661Z,95127.38
2022-12-31T00:39:07.511Z,95133.63
2022-12-31T00:41:34.408Z,95142.91
2022-12-31T00:44:01.166Z,95139.94
2022-12-31T00:46:27.863Z,95132.69
2022-12-31T00:49:00.041Z,95135.06
2022-12-31T00:51:29.860Z,95138.03
2022-12-31T00:53:57.370Z,95139.13
2022-12-31T00:56:27.302Z,95141.06
2022-12-31T00:58:54.145Z,95140.66
2022-12-31T01:01:38.589Z,95151.28
2022-12-31T01:04:19.324Z,95150.81
2022-12-31T01:06:46.813Z,95150.22
2022-12-31T01:09:15.755Z,95157.47
2022-12-31T01:11:47.778Z,95155.59
2022-12-31T01:14:18.339Z,95165.00
2022-12-31T01:16:50.789Z,95164.63
2022-12-31T01:19:23.249Z,95165.16
2022-12-31T01:21:51.149Z,95168.75
2022-12-31T01:24:18.197Z,95173.47
2022-12-31T01:26:45.408Z,95163.09
2022-12-31T01:29:13.359Z,95165.19
2022-12-31T01:31:41.243Z,95168.56
2022-12-31T01:34:08.257Z,95161.97
2022-12-31T01:36:36.454Z,95175.34
2022-12-31T01:39:05.627Z,95174.69
2022-12-31T01:41:35.848Z,95173.41
2022-12-31T01:44:12.997Z,95173.63
2022-12-31T01:46:51.089Z,95186.13
2022-12-31T01:49:39.245Z,95180.81
2022-12-31T01:52:37.673Z,95183.31
2022-12-31T01:55:20.060Z,95181.88
2022-12-31T01:57:54.754Z,95185.34
2022-12-31T02:00:21.676Z,95177.47
2022-12-31T02:02:48.667Z,95179.69
2022-12-31T02:05:26.229Z,95193.41
2022-12-31T02:07:54.185Z,95197.34
2022-12-31T02:10:20.839Z,95192.66
2022-12-31T02:12:48.525Z,95189.03
2022-12-31T02:15:15.408Z,95191.22
2022-12-31T02:17:55.916Z,95188.69
2022-12-31T02:20:55.732Z,95196.34
2022-12-31T02:23:46.034Z,95193.59
2022-12-31T02:26:15.474Z,95193.06
2022-12-31T02:28:53.843Z,95189.16
2022-12-31T02:31:34.922Z,95192.22
2022-12-31T02:34:09.989Z,95197.59
2022-12-31T02:36:40.310Z,95199.22
2022-12-31T02:39:09.869Z,95201.78
2022-12-31T02:41:51.848Z,95197.13
2022-12-31T02:44:30.810Z,95202.06
2022-12-31T02:47:03.608Z,95213.56
2022-12-31T02:49:33.872Z,95206.59
2022-12-31T02:52:29.431Z,95202.84
2022-12-31T02:55:18.702Z,95212.28
2022-12-31T02:57:54.284Z,95208.22
2022-12-31T03:00:39.750Z,95205.63
2022-12-31T03:03:08.026Z,95208.78
2022-12-31T03:05:41.975Z,95201.22
2022-12-31T03:08:09.521Z,95202.84
2022-12-31T03:10:36.791Z,95197.69
2022-12-31T03:13:03.988Z,95196.41
2022-12-31T03:15:33.335Z,95192.19
2022-12-31T03:18:02.188Z,95191.69
2022-12-31T03:20:47.026Z,95188.09
2022-12-31T03:23:17.364Z,95187.78
2022-12-31T03:25:45.069Z,95187.94
2022-12-31T03:28:15.159Z,95189.81
2022-12-31T03:30:46.206Z,95191.81
2022-12-31T03:33:13.277Z,95193.09
2022-12-31T03:35:41.525Z,95187.09
2022-12-31T03:38:09.095Z,95189.34
2022-12-31T03:40:44.689Z,95186.47
2022-12-31T03:43:11.286Z,95179.97
2022-12-31T03:45:38.355Z,95197.00
2022-12-31T03:48:06.668Z,95201.88
2022-12-31T03:50:33.845Z,95202.00
2022-12-31T03:53:04.314Z,95203.94
2022-12-31T03:55:36.175Z,95201.00
2022-12-31T03:58:03.307Z,95204.97
2022-12-31T04:00:30.226Z,95202.69
2022-12-31T04:02:56.888Z,95203.44
2022-12-31T04:05:23.753Z,95205.13
2022-12-31T04:07:52.122Z,95204.97
2022-12-31T04:10:19.644Z,95214.31
2022-12-31T04:12:46.393Z,95218.09
2022-12-31T04:15:19.890Z,95226.09
2022-12-31T04:17:47.319Z,95220.69
2022-12-31T04:20:14.500Z,95225.84
2022-12-31T04:22:41.283Z,95216.09
2022-12-31T04:25:11.416Z,95213.94
2022-12-31T04:27:40.420Z,95219.56
2022-12-31T04:30:07.756Z,95223.38
2022-12-31T04:32:34.499Z,95226.72
2022-12-31T04:35:01.131Z,95238.84
2022-12-31T04:37:27.822Z,95237.88
2022-12-31T04:39:56.959Z,95229.00
2022-12-31T04:42:26.973Z,95235.13
2022-12-31T04:44:53.581Z,95235.38
2022-12-31T04:47:23.586Z,95243.56
2022-12-31T04:49:50.803Z,95236.34
2022-12-31T04:52:17.380Z,95237.44
2022-12-31T04:54:43.993Z,95241.22
2022-12-31T04:57:10.643Z,95242.66
2022-12-31T04:59:42.584Z,95246.47
2022-12-31T05:02:09.712Z,95246.59
2022-12-31T05:04:36.377Z,95246.94
2022-12-31T05:07:03.202Z,95255.03
2022-12-31T05:09:31.009Z,95254.91
2022-12-31T05:11:57.811Z,95253.44
2022-12-31T05:14:24.527Z,95259.16
2022-12-31T05:16:51.259Z,95267.31
2022-12-31T05:19:18.103Z,95263.06
2022-12-31T05:22:04.737Z,95272.31
2022-12-31T05:24:31.451Z,95275.34
2022-12-31T05:26:58.025Z,95278.59
2022-12-31T05:29:24.659Z,95273.28
2022-12-31T05:31:51.287Z,95281.03
2022-12-31T05:34:17.935Z,95284.94
2022-12-31T05:36:44.632Z,95285.66
2022-12-31T05:39:14.500Z,95287.78
2022-12-31T05:41:41.120Z,95278.75
2022-12-31T05:44:07.697Z,95282.53
2022-12-31T05:46:34.282Z,95283.41
2022-12-31T05:49:08.468Z,95297.28
2022-12-31T05:51:37.047Z,95289.06
2022-12-31T05:54:04.176Z,95290.94
2022-12-31T05:56:30.788Z,95290.53
2022-12-31T05:59:04.434Z,95303.28
2022-12-31T06:01:31.341Z,95294.41
2022-12-31T06:03:57.963Z,95300.13
2022-12-31T06:06:24.609Z,95302.56
2022-12-31T06:08:52.102Z,95298.72
2022-12-31T06:11:18.755Z,95295.19
2022-12-31T06:13:45.339Z,95302.47
2022-12-31T06:16:12.022Z,95305.03
2022-12-31T06:18:38.664Z,95315.78
2022-12-31T06:21:05.463Z,95313.03
2022-12-31T06:26:14.231Z,95326.69
2022-12-31T06:31:27.059Z,95329.97
2022-12-31T06:34:03.903Z,95331.53
2022-12-31T06:36:30.529Z,95331.44
2022-12-31T06:39:00.631Z,95336.16
2022-12-31T06:41:27.233Z,95340.50
2022-12-31T06:43:53.826Z,95346.63
2022-12-31T06:46:20.521Z,95346.81
2022-12-31T06:48:47.231Z,95352.31
2022-12-31T06:51:17.812Z,95351.50
2022-12-31T06:53:49.377Z,95351.50
2022-12-31T06:56:16.495Z,95354.59
2022-12-31T06:58:46.879Z,95368.09
2022-12-31T07:01:34.667Z,95359.22
2022-12-31T07:04:21.325Z,95364.53
2022-12-31T07:07:16.442Z,95363.16
2022-12-31T07:09:53.018Z,95358.81
2022-12-31T07:12:34.887Z,95366.69
2022-12-31T07:15:43.154Z,95378.41
2022-12-31T07:18:30.165Z,95370.81
2022-12-31T07:20:56.989Z,95375.75
2022-12-31T07:23:23.851Z,95378.22
2022-12-31T07:26:06.855Z,95373.47
2022-12-31T07:28:39.036Z,95374.91
2022-12-31T07:31:27.555Z,95377.44
2022-12-31T07:33:59.139Z,95380.84
2022-12-31T07:36:28.494Z,95380.03
2022-12-31T07:38:57.767Z,95389.00
2022-12-31T07:41:45.731Z,95384.19
2022-12-31T07:44:38.119Z,95384.72
2022-12-31T07:47:10.410Z,95392.56
2022-12-31T07:49:42.292Z,95394.34
2022-12-31T07:52:09.340Z,95397.75
2022-12-31T07:54:35.956Z,95398.72
2022-12-31T07:57:02.614Z,95409.91
2022-12-31T07:59:41.510Z,95400.56
2022-12-31T08:02:26.956Z,95401.75
2022-12-31T08:05:08.401Z,95395.69
2022-12-31T08:08:07.162Z,95404.84
2022-12-31T08:10:39.069Z,95400.03
2022-12-31T08:13:10.119Z,95399.31
2022-12-31T08:15:40.462Z,95391.81
2022-12-31T08:18:08.426Z,95400.66
2022-12-31T08:20:49.757Z,95389.88
2022-12-31T08:23:28.601Z,95402.19
2022-12-31T08:26:16.984Z,95395.69
2022-12-31T08:28:59.558Z,95398.97
2022-12-31T08:31:52.308Z,95395.78
2022-12-31T08:34:37.697Z,95398.56
2022-12-31T08:37:16.930Z,95408.13
2022-12-31T08:39:58.419Z,95405.75
2022-12-31T08:42:32.567Z,95405.59
2022-12-31T08:45:24.245Z,95399.41
2022-12-31T08:48:04.356Z,95405.91
2022-12-31T08:50:31.560Z,95402.09
2022-12-31T08:52:58.726Z,95391.06
2022-12-31T08:55:25.584Z,95385.59
2022-12-31T08:58:07.485Z,95391.44
2022-12-31T09:00:36.231Z,95395.06
2022-12-31T09:03:08.789Z,95393.44
2022-12-31T09:05:53.213Z,95390.34
2022-12-31T09:08:34.776Z,95390.06
2022-12-31T09:11:14.282Z,95390.16
2022-12-31T09:14:02.393Z,95388.56
2022-12-31T09:16:28.944Z,95386.66
2022-12-31T09:18:55.611Z,95382.84
2022-12-31T09:21:22.390Z,95391.13
2022-12-31T09:23:49.392Z,95384.84
2022-12-31T09:26:40.502Z,95374.47
2022-12-31T09:29:24.836Z,95377.94
2022-12-31T09:32:05.152Z,95378.78
2022-12-31T09:34:46.971Z,95369.91
2022-12-31T09:37:28.181Z,95357.34
2022-12-31T09:40:01.437Z,95359.56
2022-12-31T09:43:05.222Z,95349.91
2022-12-31T09:45:46.999Z,95338.78
2022-12-31T09:48:41.442Z,95334.13
2022-12-31T09:51:25.231Z,95333.47
2022-12-31T09:54:16.623Z,95327.03
2022-12-31T09:56:47.093Z,95332.69
2022-12-31T09:59:24.488Z,95325.75
2022-12-31T10:02:02.935Z,95327.97
2022-12-31T10:04:59.307Z,95333.31
2022-12-31T10:07:35.636Z,95322.28
2022-12-31T10:10:23.833Z,95323.84
2022-12-31T10:13:05.244Z,95323.34
2022-12-31T10:15:37.801Z,95316.41
2022-12-31T10:18:14.049Z,95315.81
2022-12-31T10:20:58.030Z,95314.19
2022-12-31T10:23:46.303Z,95309.66
2022-12-31T10:26:46.204Z,95307.91
2022-12-31T10:29:45.365Z,95294.38
2022-12-31T10:32:31.684Z,95296.91
2022-12-31T10:35:12.866Z,95293.41
2022-12-31T10:38:34.860Z,95303.06
2022-12-31T10:41:10.133Z,95288.91
2022-12-31T10:43:54.902Z,95292.75
2022-12-31T10:47:18.649Z,95291.06
2022-12-31T10:49:47.696Z,95288.63
2022-12-31T10:52:17.061Z,95287.72
2022-12-31T10:55:09.049Z,95279.50
2022-12-31T10:58:24.839Z,95283.28
2022-12-31T11:07:41.300Z,95288.16
2022-12-31T11:13:35.594Z,95284.25
2022-12-31T11:16:40.883Z,95282.22
2022-12-31T11:19:22.806Z,95269.50
2022-12-31T11:21:58.585Z,95262.97
2022-12-31T11:24:33.647Z,95267.03
2022-12-31T11:27:27.931Z,95266.69
2022-12-31T11:30:23.765Z,95258.88
2022-12-31T11:33:03.717Z,95263.75
2022-12-31T11:35:35.992Z,95264.34
2022-12-31T11:38:18.677Z,95268.44
2022-12-31T11:41:00.909Z,95261.66
2022-12-31T11:43:36.169Z,95258.56
2022-12-31T11:46:26.731Z,95245.94
2022-12-31T11:49:21.199Z,95239.91
2022-12-31T11:52:19.530Z,95240.38
2022-12-31T11:54:50.726Z,95235.47
2022-12-31T11:57:36.448Z,95244.59
2022-12-31T12:00:18.975Z,95243.81
2022-12-31T12:03:06.564Z,95247.94
2022-12-31T12:05:35.122Z,95260.00
2022-12-31T12:08:02.243Z,95256.59
2022-12-31T12:10:47.464Z,95257.88
2022-12-31T12:13:25.534Z,95260.94
2022-12-31T12:15:58.687Z,95256.25
2022-12-31T12:18:33.658Z,95258.38
2022-12-31T12:21:08.474Z,95261.06
2022-12-31T12:23:35.336Z,95263.19
2022-12-31T12:26:02.322Z,95260.28
2022-12-31T12:28:44.325Z,95243.53
2022-12-31T12:31:22.307Z,95262.84
2022-12-31T12:33:50.855Z,95259.41
2022-12-31T12:36:19.845Z,95251.38
2022-12-31T12:38:46.676Z,95256.28
2022-12-31T12:41:25.173Z,95261.09
2022-12-31T12:44:06.863Z,95259.50
2022-12-31T12:46:48.698Z,95256.50
2022-12-31T12:49:39.909Z,95265.22
2022-12-31T12:52:43.898Z,95254.06
2022-12-31T12:55:25.565Z,95256.28
2022-12-31T12:57:57.934Z,95258.44
2022-12-31T13:00:44.450Z,95255.38
2022-12-31T13:03:20.136Z,95258.66
2022-12-31T13:05:59.050Z,95267.03
2022-12-31T13:08:40.879Z,95266.25
2022-12-31T13:11:35.308Z,95269.28
2022-12-31T13:14:27.167Z,95266.25
2022-12-31T13:17:18.870Z,95269.59
2022-12-31T13:20:14.571Z,95272.31
2022-12-31T13:23:07.721Z,95282.25
2022-12-31T13:26:04.800Z,95281.94
2022-12-31T13:28:33.536Z,95286.06
2022-12-31T13:31:07.002Z,95284.06
2022-12-31T13:33:57.762Z,95282.47
2022-12-31T13:36:27.904Z,95288.41
2022-12-31T13:38:58.617Z,95281.16
2022-12-31T13:41:33.342Z,95284.28
2022-12-31T13:44:32.222Z,95293.19
2022-12-31T13:47:22.104Z,95290.47
2022-12-31T13:50:24.667Z,95287.22
2022-12-31T13:53:00.025Z,95289.06
2022-12-31T13:55:42.003Z,95296.47
2022-12-31T13:58:14.575Z,95297.69
2022-12-31T14:00:47.394Z,95291.41
2022-12-31T14:03:24.774Z,95291.47
2022-12-31T14:06:32.526Z,95299.56
2022-12-31T14:08:59.544Z,95304.25
2022-12-31T14:11:44.671Z,95299.31
2022-12-31T14:14:23.403Z,95302.19
2022-12-31T14:17:00.243Z,95304.47
2022-12-31T14:19:41.469Z,95303.88
2022-12-31T14:22:22.265Z,95301.72
2022-12-31T14:24:51.188Z,95310.91
2022-12-31T14:27:23.709Z,95300.72
2022-12-31T14:29:57.132Z,95304.72
2022-12-31T14:32:32.526Z,95294.56
2022-12-31T14:35:20.789Z,95297.47
2022-12-31T14:37:59.198Z,95294.78
2022-12-31T14:40:34.282Z,95292.63
2022-12-31T14:43:34.188Z,95302.44
2022-12-31T14:46:10.510Z,95300.38
2022-12-31T14:51:47.169Z,95294.13
2022-12-31T14:54:37.390Z,95296.38
2022-12-31T14:57:31.283Z,95298.75
2022-12-31T15:00:08.002Z,95295.41
2022-12-31T15:02:35.938Z,95300.78
2022-12-31T15:05:10.100Z,95300.59
2022-12-31T15:08:08.567Z,95309.47
2022-12-31T15:10:53.515Z,95304.75
2022-12-31T15:13:31.829Z,95307.75
2022-12-31T15:16:28.710Z,95317.50
2022-12-31T15:19:13.577Z,95319.25
2022-12-31T15:21:56.944Z,95329.13
2022-12-31T15:24:27.362Z,95327.56
2022-12-31T15:27:01.165Z,95335.78
2022-12-31T15:29:44.731Z,95336.56
2022-12-31T15:32:26.236Z,95340.34
2022-12-31T15:35:22.421Z,95344.09
2022-12-31T15:38:14.909Z,95337.81
2022-12-31T15:40:50.734Z,95340.19
2022-12-31T15:43:26.181Z,95341.44
2022-12-31T15:45:54.966Z,95336.44
2022-12-31T15:48:31.322Z,95338.31
2022-12-31T15:51:00.588Z,95342.88
2022-12-31T15:53:42.801Z,95336.59
2022-12-31T15:56:20.031Z,95336.72
2022-12-31T15:58:49.789Z,95343.81
2022-12-31T16:01:34.111Z,95354.81
2022-12-31T16:04:07.382Z,95353.41
2022-12-31T16:06:37.592Z,95354.50
2022-12-31T16:09:08.488Z,95355.94
2022-12-31T16:11:41.891Z,95367.25
2022-12-31T16:14:30.506Z,95367.56
2022-12-31T16:16:59.431Z,95377.34
2022-12-31T16:19:34.146Z,95379.22
2022-12-31T16:22:13.950Z,95385.03
2022-12-31T16:25:02.926Z,95381.59
2022-12-31T16:27:30.215Z,95382.03
2022-12-31T16:30:00.659Z,95387.41
2022-12-31T16:32:34.701Z,95388.97
2022-12-31T16:35:02.783Z,95396.50
2022-12-31T16:37:33.873Z,95392.28
2022-12-31T16:40:00.434Z,95407.69
2022-12-31T16:42:28.502Z,95404.38
2022-12-31T16:44:57.368Z,95399.50
2022-12-31T16:47:36.163Z,95403.13
2022-12-31T16:50:08.112Z,95407.19
2022-12-31T16:52:41.055Z,95405.78
2022-12-31T16:55:18.397Z,95416.19
2022-12-31T16:57:48.732Z,95415.41
2022-12-31T17:00:18.339Z,95413.81
2022-12-31T17:02:54.345Z,95411.94
2022-12-31T17:05:23.801Z,95406.09
2022-12-31T17:07:51.360Z,95418.53
2022-12-31T17:10:17.978Z,95422.16
2022-12-31T17:13:27.357Z,95421.81
2022-12-31T17:15:46.539Z,95430.19
2022-12-31T17:18:20.106Z,95424.19
2022-12-31T17:20:48.069Z,95440.09
2022-12-31T17:23:25.554Z,95431.41
2022-12-31T17:25:59.186Z,95439.75
2022-12-31T17:28:27.449Z,95438.81
2022-12-31T17:31:32.135Z,95433.31
2022-12-31T17:34:14.047Z,95439.59
2022-12-31T17:36:52.855Z,95447.16
2022-12-31T17:39:22.331Z,95447.16
2022-12-31T17:41:52.758Z,95445.13
2022-12-31T17:44:26.067Z,95443.03
2022-12-31T17:46:53.436Z,95447.94
2022-12-31T17:49:27.239Z,95442.09
2022-12-31T17:51:54.063Z,95451.69
2022-12-31T17:54:20.668Z,95449.19
2022-12-31T17:56:47.508Z,95450.91
2022-12-31T17:59:19.027Z,95442.56
2022-12-31T18:01:45.692Z,95443.69
2022-12-31T18:04:17.306Z,95452.34
2022-12-31T18:06:44.846Z,95452.34
2022-12-31T18:09:11.760Z,95444.31
2022-12-31T18:11:42.685Z,95446.06
2022-12-31T18:14:13.803Z,95443.69
2022-12-31T18:16:40.544Z,95430.34
2022-12-31T18:19:37.820Z,95436.78
2022-12-31T18:22:02.314Z,95435.03
2022-12-31T18:24:28.955Z,95438.19
2022-12-31T18:26:55.616Z,95427.16
2022-12-31T18:29:22.500Z,95431.41
2022-12-31T18:31:50.332Z,95436.91
2022-12-31T18:34:18.229Z,95447.44
2022-12-31T18:36:47.538Z,95446.06
2022-12-31T18:39:14.227Z,95452.34
2022-12-31T18:41:49.119Z,95459.56
2022-12-31T18:44:16.803Z,95455.78
2022-12-31T18:46:43.544Z,95462.06
2022-12-31T18:49:10.154Z,95461.44
2022-12-31T18:51:36.936Z,95461.47
2022-12-31T18:54:04.935Z,95462.72
2022-12-31T18:56:32.133Z,95462.88
2022-12-31T18:58:59.913Z,95471.19
2022-12-31T19:01:38.692Z,95469.28
2022-12-31T19:04:16.284Z,95478.50
2022-12-31T19:06:46.093Z,95471.91
2022-12-31T19:09:30.960Z,95473.63
2022-12-31T19:11:59.601Z,95468.25
2022-12-31T19:14:26.801Z,95471.25
2022-12-31T19:19:25.540Z,95467.28
2022-12-31T19:21:52.186Z,95472.16
2022-12-31T19:24:22.254Z,95473.13
2022-12-31T19:26:49.435Z,95457.22
2022-12-31T19:29:19.197Z,95463.03
2022-12-31T19:31:45.985Z,95464.44
2022-12-31T19:34:12.754Z,95459.41
2022-12-31T19:36:44.088Z,95458.63
2022-12-31T19:39:15.923Z,95460.94
2022-12-31T19:41:43.866Z,95460.50
2022-12-31T19:44:18.720Z,95461.09
2022-12-31T19:46:46.682Z,95456.47
2022-12-31T19:49:14.319Z,95453.69
2022-12-31T19:51:42.199Z,95464.78
2022-12-31T19:54:08.871Z,95468.13
2022-12-31T19:56:38.303Z,95469.38
2022-12-31T19:59:05.798Z,95463.16
2022-12-31T20:01:32.623Z,95472.91
2022-12-31T20:03:59.344Z,95466.19
2022-12-31T20:06:26.008Z,95468.06
2022-12-31T20:08:52.705Z,95477.66
2022-12-31T20:11:23.369Z,95477.00
2022-12-31T20:13:52.388Z,95489.88
2022-12-31T20:16:21.632Z,95487.25
2022-12-31T20:18:48.829Z,95499.81
2022-12-31T20:21:21.737Z,95496.97
2022-12-31T20:23:50.162Z,95501.00
2022-12-31T20:26:18.145Z,95499.25
2022-12-31T20:28:45.179Z,95510.59
2022-12-31T20:31:17.326Z,95502.81
2022-12-31T20:33:44.810Z,95498.97
2022-12-31T20:36:14.938Z,95496.81
2022-12-31T20:38:41.808Z,95489.91
2022-12-31T20:41:14.290Z,95489.91
2022-12-31T20:43:41.452Z,95485.91
2022-12-31T20:46:14.898Z,95489.72
2022-12-31T20:48:43.244Z,95489.38
2022-12-31T20:51:09.909Z,95494.53
2022-12-31T20:53:36.550Z,95494.97
2022-12-31T20:56:07.849Z,95488.78
2022-12-31T20:58:34.951Z,95491.81
2022-12-31T21:01:05.617Z,95474.34
2022-12-31T21:06:19.473Z,95473.56
2022-12-31T21:08:46.634Z,95473.75
2022-12-31T21:11:32.927Z,95460.16
2022-12-31T21:14:00.862Z,95460.06
2022-12-31T21:16:28.138Z,95468.84
2022-12-31T21:18:55.264Z,95466.97
2022-12-31T21:21:22.291Z,95468.41
2022-12-31T21:23:48.906Z,95471.88
2022-12-31T21:26:15.555Z,95479.06
2022-12-31T21:28:42.579Z,95473.88
2022-12-31T21:31:12.373Z,95487.34
2022-12-31T21:33:39.318Z,95485.66
2022-12-31T21:36:06.120Z,95478.44
2022-12-31T21:38:35.472Z,95488.31
2022-12-31T21:41:08.998Z,95497.03
2022-12-31T21:43:35.735Z,95494.38
2022-12-31T21:46:07.394Z,95499.09
2022-12-31T21:48:34.304Z,95493.28
2022-12-31T21:51:09.553Z,95495.59
2022-12-31T21:53:37.552Z,95493.88
2022-12-31T21:56:10.548Z,95496.69
2022-12-31T21:58:39.581Z,95495.53
2022-12-31T22:01:25.880Z,95492.25
2022-12-31T22:03:52.608Z,95494.72
2022-12-31T22:06:21.981Z,95487.00
2022-12-31T22:08:51.320Z,95493.88
2022-12-31T22:11:19.497Z,95487.47
2022-12-31T22:13:46.855Z,95486.84
2022-12-31T22:16:14.233Z,95491.91
2022-12-31T22:18:42.954Z,95494.75
2022-12-31T22:21:17.408Z,95488.72
2022-12-31T22:23:45.114Z,95495.00
2022-12-31T22:26:14.455Z,95496.88
2022-12-31T22:28:42.963Z,95497.69
2022-12-31T22:31:13.175Z,95504.53
2022-12-31T22:33:39.813Z,95511.34
2022-12-31T22:36:10.650Z,95510.72
2022-12-31T22:38:38.329Z,95517.50
2022-12-31T22:41:10.625Z,95523.63
2022-12-31T22:43:43.313Z,95524.16
2022-12-31T22:46:11.138Z,95535.19
2022-12-31T22:48:38.428Z,95539.44
2022-12-31T22:51:06.163Z,95533.94
2022-12-31T22:53:33.209Z,95527.44
2022-12-31T22:55:59.970Z,95531.38
2022-12-31T22:58:26.977Z,95523.72
2022-12-31T23:00:54.034Z,95521.13
2022-12-31T23:03:20.859Z,95515.72
2022-12-31T23:05:54.408Z,95529.22
2022-12-31T23:08:23.621Z,95518.28
2022-12-31T23:11:01.251Z,95532.06
2022-12-31T23:13:50.875Z,95523.09
2022-12-31T23:16:37.670Z,95527.34
2022-12-31T23:19:23.176Z,95516.88
2022-12-31T23:22:08.525Z,95514.72
2022-12-31T23:24:35.339Z,95512.03
2022-12-31T23:27:02.447Z,95503.13
2022-12-31T23:29:29.000Z,95510.94
2022-12-31T23:31:55.782Z,95502.47
2022-12-31T23:34:22.675Z,95497.94
2022-12-31T23:36:49.325Z,95492.41
2022-12-31T23:39:15.987Z,95490.56
2022-12-31T23:41:42.581Z,95492.44
2022-12-31T23:44:11.953Z,95486.03
2022-12-31T23:46:39.337Z,95491.53
2022-12-31T23:49:06.413Z,95490.13
2022-12-31T23:51:33.282Z,95498.94
2022-12-31T23:54:00.798Z,95497.59
2022-12-31T23:56:27.577Z,95497.25
2022-12-31T23:58:58.855Z,95511.78
